Chesterton, Indiana
Current Conditions -  °F | °C
As of 12:56 PM on Monday 20 Oct 2014 (Local Time) from KVPZ Reporting Station
Clear Clear  
Wind Chill: 60°   Ceiling: Unl
Heat Index: 60°   Visibility: 10mi
Dew Point: 47°   Wind: 10mph
Humidity: 62%   Direction: 330°NNW
Pressure: 29.83"   Gusts: NA
Location:  41.61°N, 87.06°W
Report Text: KVPZ 201756Z AUTO 33009KT 300V360 10SM CLR 16/08 A2983 RMK AO2 SLP103 T01560083 10161 20083 58004 TSNO
Loading
Personal Weather Stations






























Interactive Weather Map
Tropical Storm Tracking
New forecast layout! Learn more

10-Day Weather Forecast

Advertisements
Track Severe Weather on mobile